Time;durP1;ratioP1;P1;durP2;ratioP2;P2;SDS_P1;SDS_P2;PMS_P1;PMS_P2;Temp;Humidity;BMP_temperature;BMP_pressure;BME280_temperature;BME280_humidity;BME280_pressure;Samples;Min_cycle;Max_cycle;Signal;HPM_P1;HPM_P2
2023/01/02 00:01:36;;;;;;;16.75;5.90;;;12.90;96.70;;;;;;5046418;28;20136;-74
2023/01/02 00:04:02;;;;;;;9.57;5.10;;;12.80;97.20;;;;;;5041277;28;20042;-74
2023/01/02 00:06:33;;;;;;;12.90;5.10;;;12.80;97.00;;;;;;5051316;28;20471;-75
2023/01/02 00:08:59;;;;;;;19.38;6.50;;;12.90;96.70;;;;;;5038958;28;20022;-74
2023/01/02 00:11:25;;;;;;;15.02;7.13;;;12.90;97.30;;;;;;5033374;28;20113;-74
2023/01/02 00:13:50;;;;;;;13.13;5.93;;;12.90;97.40;;;;;;5028683;28;20116;-73
2023/01/02 00:16:16;;;;;;;7.55;4.38;;;12.90;97.40;;;;;;5049546;28;20018;-73
2023/01/02 00:18:43;;;;;;;12.13;5.20;;;12.90;96.80;;;;;;5054155;28;20025;-74
2023/01/02 00:21:08;;;;;;;13.02;5.50;;;13.00;97.00;;;;;;5044434;28;20029;-74
2023/01/02 00:23:34;;;;;;;16.35;7.05;;;13.00;97.00;;;;;;5033836;28;20040;-75
2023/01/02 00:26:00;;;;;;;12.05;5.65;;;13.00;97.60;;;;;;5046746;28;20084;-74
2023/01/02 00:28:26;;;;;;;12.60;5.15;;;13.00;97.30;;;;;;5032029;28;20029;-75
2023/01/02 00:30:52;;;;;;;12.18;5.05;;;13.00;97.20;;;;;;5043876;28;20442;-73
2023/01/02 00:33:17;;;;;;;13.73;6.07;;;13.10;96.90;;;;;;5049658;28;20090;-74
2023/01/02 00:35:43;;;;;;;16.25;6.10;;;13.10;97.10;;;;;;5037288;28;20390;-74
2023/01/02 00:38:11;;;;;;;20.17;6.38;;;13.10;97.40;;;;;;5064384;28;20032;-74
2023/01/02 00:40:36;;;;;;;14.40;5.72;;;13.10;97.20;;;;;;5048710;28;20112;-75
2023/01/02 00:43:02;;;;;;;13.25;5.18;;;13.20;96.70;;;;;;5052144;28;20111;-75
2023/01/02 00:45:28;;;;;;;10.38;5.88;;;13.10;97.00;;;;;;5037178;28;20039;-75
2023/01/02 00:47:53;;;;;;;10.52;4.75;;;13.10;97.10;;;;;;5053813;28;20067;-75
2023/01/02 00:50:19;;;;;;;13.55;4.78;;;13.10;96.90;;;;;;5034993;28;20037;-76
2023/01/02 00:52:45;;;;;;;14.50;5.82;;;13.20;96.60;;;;;;5045665;28;20037;-74
2023/01/02 00:55:12;;;;;;;11.25;4.97;;;13.20;96.60;;;;;;5031251;28;20037;-74
2023/01/02 00:57:37;;;;;;;13.43;5.25;;;13.20;96.90;;;;;;5046547;28;20288;-74
2023/01/02 01:00:05;;;;;;;13.85;5.45;;;13.10;96.90;;;;;;5063166;28;20016;-74
2023/01/02 01:02:30;;;;;;;9.93;5.28;;;13.20;97.20;;;;;;5058988;28;20017;-75
2023/01/02 01:04:56;;;;;;;11.25;4.13;;;13.20;97.20;;;;;;5048181;28;20019;-75
2023/01/02 01:07:22;;;;;;;11.60;4.95;;;13.20;97.20;;;;;;5053398;28;20115;-75
2023/01/02 01:09:47;;;;;;;12.38;5.85;;;13.20;97.10;;;;;;5039961;28;20021;-75
2023/01/02 01:12:13;;;;;;;11.30;5.03;;;13.30;97.00;;;;;;5027048;28;20113;-75
2023/01/02 01:14:39;;;;;;;13.18;6.07;;;13.30;97.30;;;;;;5057327;28;20024;-75
2023/01/02 01:17:04;;;;;;;11.48;5.20;;;13.30;97.20;;;;;;5037416;28;20016;-75
2023/01/02 01:19:34;;;;;;;14.18;5.65;;;13.30;97.10;;;;;;5054227;28;20101;-76
2023/01/02 01:22:00;;;;;;;13.38;4.93;;;13.30;97.30;;;;;;5032498;28;20128;-74
2023/01/02 01:24:26;;;;;;;9.10;4.47;;;13.30;97.10;;;;;;5056547;28;20482;-75
2023/01/02 01:26:51;;;;;;;16.20;5.70;;;13.30;96.80;;;;;;5049375;28;20033;-74
2023/01/02 01:29:18;;;;;;;11.90;4.50;;;13.30;96.30;;;;;;5036420;28;20052;-75
2023/01/02 01:31:44;;;;;;;13.60;5.97;;;13.30;96.40;;;;;;5050016;28;20048;-74
2023/01/02 01:34:13;;;;;;;10.55;3.97;;;13.40;96.70;;;;;;5049476;28;20025;-75
2023/01/02 01:36:38;;;;;;;14.05;4.95;;;13.40;96.10;;;;;;5042814;28;20024;-74
2023/01/02 01:39:04;;;;;;;15.77;4.75;;;13.40;96.00;;;;;;5045918;28;20387;-75
2023/01/02 01:41:30;;;;;;;7.30;3.45;;;13.40;96.00;;;;;;5035043;28;20110;-76
2023/01/02 01:43:57;;;;;;;13.52;4.88;;;13.40;95.70;;;;;;5050487;28;20036;-75
2023/01/02 01:46:32;;;;;;;10.93;4.55;;;13.40;95.80;;;;;;5031692;28;20029;-75
2023/01/02 01:49:08;;;;;;;12.10;5.13;;;13.50;95.80;;;;;;5043644;28;20029;-75
2023/01/02 01:51:51;;;;;;;16.52;6.30;;;13.40;96.00;;;;;;5032221;28;20491;-75
2023/01/02 01:54:23;;;;;;;12.30;4.15;;;13.40;96.40;;;;;;5055681;28;20013;-75
2023/01/02 01:56:55;;;;;;;12.07;5.25;;;13.50;96.20;;;;;;5057822;28;20029;-75
2023/01/02 01:59:21;;;;;;;11.90;5.20;;;13.50;96.10;;;;;;5053042;28;20036;-74
2023/01/02 02:01:51;;;;;;;8.10;3.38;;;13.50;95.80;;;;;;5046648;28;20017;-74
2023/01/02 02:04:19;;;;;;;7.13;3.75;;;13.50;95.60;;;;;;5039684;28;20047;-74
2023/01/02 02:06:45;;;;;;;14.70;4.85;;;13.50;95.80;;;;;;5035246;28;20025;-75
2023/01/02 02:09:34;;;;;;;15.38;5.40;;;13.50;95.90;;;;;;5048405;28;20017;-75
2023/01/02 02:12:02;;;;;;;8.02;3.85;;;13.50;96.10;;;;;;5032450;28;20037;-74
2023/01/02 02:14:28;;;;;;;13.02;4.45;;;13.50;96.20;;;;;;5021749;28;20028;-75
2023/01/02 02:17:18;;;;;;;15.68;5.43;;;13.50;96.40;;;;;;5066884;28;20095;-74
2023/01/02 02:20:12;;;;;;;14.93;6.07;;;13.50;96.10;;;;;;5040510;28;20067;-75
2023/01/02 02:23:19;;;;;;;10.05;3.40;;;13.50;96.90;;;;;;5039131;28;20040;-74
2023/01/02 02:26:12;;;;;;;11.90;5.65;;;13.40;96.30;;;;;;5046869;28;20056;-75
2023/01/02 02:28:43;;;;;;;11.73;5.40;;;13.40;96.90;;;;;;5033330;28;20029;-74
2023/01/02 02:31:53;;;;;;;15.82;5.43;;;13.40;96.90;;;;;;5047281;28;20536;-75
2023/01/02 02:34:24;;;;;;;12.48;5.32;;;13.40;96.90;;;;;;4967431;28;20178;-73
2023/01/02 02:36:52;;;;;;;14.18;5.38;;;13.40;97.30;;;;;;5013231;28;20476;-75
2023/01/02 02:40:01;;;;;;;15.02;5.25;;;13.40;97.10;;;;;;5027970;28;20029;-75
2023/01/02 02:42:40;;;;;;;16.13;5.93;;;13.40;97.40;;;;;;4966675;28;20045;-75
2023/01/02 02:45:13;;;;;;;13.52;5.00;;;13.40;97.40;;;;;;5042461;28;20551;-74
2023/01/02 02:48:01;;;;;;;11.50;4.50;;;13.40;97.80;;;;;;5043129;28;20147;-75
2023/01/02 02:50:42;;;;;;;8.77;3.63;;;13.40;97.80;;;;;;5017584;28;20547;-75
2023/01/02 02:53:21;;;;;;;12.00;4.45;;;13.50;97.10;;;;;;5032453;28;20028;-75
2023/01/02 02:55:56;;;;;;;14.32;4.63;;;13.40;97.90;;;;;;5044485;28;20387;-75
2023/01/02 02:58:25;;;;;;;15.95;4.78;;;13.50;97.40;;;;;;5043045;28;20025;-74
2023/01/02 03:01:04;;;;;;;15.75;4.97;;;13.50;97.40;;;;;;5052539;28;20020;-75
2023/01/02 03:03:29;;;;;;;11.18;4.72;;;13.50;97.90;;;;;;5041289;28;20037;-75
2023/01/02 03:06:07;;;;;;;13.85;5.53;;;13.50;97.80;;;;;;5036311;28;20759;-74
2023/01/02 03:08:38;;;;;;;12.13;4.05;;;13.40;98.10;;;;;;5048410;28;20049;-75
2023/01/02 03:11:04;;;;;;;12.10;4.47;;;13.50;97.90;;;;;;5033535;28;20024;-75
2023/01/02 03:13:52;;;;;;;12.70;4.32;;;13.50;97.80;;;;;;5035014;28;20702;-74
2023/01/02 03:16:38;;;;;;;13.70;4.82;;;13.50;97.60;;;;;;5035637;28;20056;-75
2023/01/02 03:19:09;;;;;;;13.15;4.97;;;13.50;97.50;;;;;;5038287;28;20049;-73
2023/01/02 03:21:37;;;;;;;15.20;5.50;;;13.50;97.70;;;;;;5021730;28;20033;-74
2023/01/02 03:24:07;;;;;;;15.00;5.78;;;13.50;97.90;;;;;;5035405;28;20080;-74
2023/01/02 03:26:38;;;;;;;13.50;5.60;;;13.50;97.90;;;;;;5039652;28;20504;-76
2023/01/02 03:29:14;;;;;;;9.82;4.93;;;13.50;98.20;;;;;;5042910;28;20411;-77
2023/01/02 03:31:42;;;;;;;15.38;5.18;;;13.50;98.20;;;;;;5047253;28;20075;-75
2023/01/02 03:34:16;;;;;;;16.42;5.43;;;13.40;98.30;;;;;;5058543;28;20016;-75
2023/01/02 03:36:44;;;;;;;12.88;4.25;;;13.50;98.20;;;;;;5056030;28;20490;-75
2023/01/02 03:39:13;;;;;;;13.85;4.47;;;13.40;98.70;;;;;;5065031;28;20028;-76
2023/01/02 03:42:15;;;;;;;11.68;5.47;;;13.40;98.50;;;;;;5051750;28;20476;-74
2023/01/02 03:45:00;;;;;;;16.52;4.47;;;13.50;98.10;;;;;;5047753;28;20451;-76
2023/01/02 03:47:37;;;;;;;11.35;3.50;;;13.60;97.80;;;;;;5044630;28;20078;-75
2023/01/02 03:50:17;;;;;;;13.57;4.25;;;13.60;97.60;;;;;;5054888;28;20117;-75
2023/01/02 03:52:43;;;;;;;9.45;4.30;;;13.60;97.70;;;;;;5043331;28;20028;-74
2023/01/02 03:55:09;;;;;;;15.10;5.05;;;13.60;98.00;;;;;;5043237;28;20029;-75
2023/01/02 03:57:56;;;;;;;9.00;4.25;;;13.60;98.50;;;;;;5040853;28;20025;-76
2023/01/02 04:00:23;;;;;;;11.02;4.47;;;13.60;98.20;;;;;;5052210;28;20033;-75
2023/01/02 04:03:06;;;;;;;10.38;4.30;;;13.60;97.90;;;;;;5041050;28;20107;-75
2023/01/02 04:06:01;;;;;;;12.50;4.43;;;13.60;97.70;;;;;;5034772;28;20132;-75
2023/01/02 04:08:40;;;;;;;14.60;4.40;;;13.60;98.00;;;;;;5043997;28;20017;-75
2023/01/02 04:11:07;;;;;;;13.80;4.50;;;13.60;97.80;;;;;;5047669;28;20029;-75
2023/01/02 04:13:41;;;;;;;11.60;3.92;;;13.60;97.70;;;;;;5045189;28;20616;-74
2023/01/02 04:16:09;;;;;;;10.52;4.85;;;13.60;97.80;;;;;;5047007;28;20032;-74
2023/01/02 04:18:57;;;;;;;10.88;3.88;;;13.60;98.00;;;;;;5034403;28;20024;-75
2023/01/02 04:21:26;;;;;;;11.93;4.40;;;13.60;98.00;;;;;;5056612;28;20600;-74
2023/01/02 04:24:11;;;;;;;12.90;5.47;;;13.60;98.00;;;;;;5053953;28;20470;-75
2023/01/02 04:27:12;;;;;;;12.50;5.20;;;13.60;98.00;;;;;;5041732;28;20124;-76
2023/01/02 04:29:38;;;;;;;11.77;4.20;;;13.60;98.40;;;;;;5049789;28;20032;-75
2023/01/02 04:32:15;;;;;;;12.95;5.13;;;13.50;98.20;;;;;;5058538;28;20037;-75
2023/01/02 04:34:42;;;;;;;10.10;3.53;;;13.50;97.90;;;;;;5046032;28;20670;-76
2023/01/02 04:37:08;;;;;;;18.52;4.80;;;13.50;98.00;;;;;;5050827;28;20025;-75
2023/01/02 04:39:36;;;;;;;12.25;4.22;;;13.60;98.40;;;;;;5041434;28;20021;-77
2023/01/02 04:42:02;;;;;;;8.75;4.30;;;13.60;98.30;;;;;;5039858;28;20026;-76
2023/01/02 04:44:28;;;;;;;14.25;4.50;;;13.60;98.30;;;;;;5032727;28;20017;-76
2023/01/02 04:46:53;;;;;;;11.32;4.30;;;13.60;98.20;;;;;;5049116;28;20033;-75
2023/01/02 04:49:21;;;;;;;11.10;5.28;;;13.50;98.30;;;;;;5015613;28;20029;-76
2023/01/02 04:51:47;;;;;;;10.93;4.18;;;13.60;97.90;;;;;;5066832;28;20036;-75
2023/01/02 04:54:12;;;;;;;12.10;5.15;;;13.50;98.40;;;;;;5028537;28;20528;-76
2023/01/02 04:56:38;;;;;;;12.25;4.88;;;13.50;98.60;;;;;;5064918;28;20020;-75
2023/01/02 04:59:04;;;;;;;11.90;4.07;;;13.50;98.50;;;;;;5041196;28;20448;-76
2023/01/02 05:01:30;;;;;;;8.68;4.18;;;13.60;97.60;;;;;;5064014;28;20078;-77
2023/01/02 05:03:56;;;;;;;10.82;3.90;;;13.60;98.00;;;;;;5059347;28;20475;-75
2023/01/02 05:06:21;;;;;;;10.57;4.72;;;13.60;97.90;;;;;;5048815;28;20032;-76
2023/01/02 05:08:47;;;;;;;15.70;5.00;;;13.60;98.00;;;;;;5046793;28;20071;-76
2023/01/02 05:11:15;;;;;;;12.45;3.85;;;13.60;98.30;;;;;;5054166;28;20032;-74
2023/01/02 05:13:41;;;;;;;8.98;4.15;;;13.50;98.50;;;;;;5049158;28;20057;-74
2023/01/02 05:16:07;;;;;;;11.23;3.92;;;13.60;98.00;;;;;;5040278;28;20033;-75
2023/01/02 05:18:33;;;;;;;14.80;4.50;;;13.60;97.50;;;;;;5034469;28;20037;-75
2023/01/02 05:21:03;;;;;;;11.27;4.18;;;13.50;97.80;;;;;;5043979;28;20387;-75
2023/01/02 05:23:47;;;;;;;13.85;4.30;;;13.60;97.40;;;;;;5043688;28;20026;-75
2023/01/02 05:26:14;;;;;;;7.97;4.35;;;13.50;98.20;;;;;;5042418;28;20064;-75
2023/01/02 05:28:40;;;;;;;11.50;4.60;;;13.50;98.10;;;;;;5062247;28;20116;-74
2023/01/02 05:31:06;;;;;;;9.23;4.15;;;13.50;98.00;;;;;;5053319;28;20100;-75
2023/01/02 05:33:31;;;;;;;9.52;4.10;;;13.50;98.30;;;;;;5061353;28;20075;-75
2023/01/02 05:35:57;;;;;;;9.55;3.75;;;13.50;98.30;;;;;;5045423;28;20070;-76
2023/01/02 05:38:23;;;;;;;6.38;2.60;;;13.50;98.20;;;;;;5039186;28;20137;-76
2023/01/02 05:40:49;;;;;;;13.57;4.57;;;13.50;98.20;;;;;;5046955;28;20467;-75
2023/01/02 05:43:15;;;;;;;11.18;5.38;;;13.50;98.40;;;;;;5045344;28;20024;-75
2023/01/02 05:45:40;;;;;;;16.85;5.45;;;13.50;98.70;;;;;;5038331;28;20029;-75
2023/01/02 05:48:06;;;;;;;10.40;3.08;;;13.50;98.40;;;;;;5039642;28;20017;-76
2023/01/02 05:50:33;;;;;;;9.48;4.05;;;13.50;97.50;;;;;;5029644;28;20014;-76
2023/01/02 05:52:58;;;;;;;10.65;4.70;;;13.50;97.90;;;;;;5026906;28;20035;-77
2023/01/02 05:55:24;;;;;;;9.60;3.65;;;13.50;97.90;;;;;;5036292;28;20403;-76
2023/01/02 05:57:54;;;;;;;10.88;4.07;;;13.60;97.80;;;;;;5051539;28;20088;-77
2023/01/02 06:00:20;;;;;;;;;;;13.60;97.80;;;;;;5052472;28;20115;-76
2023/01/02 06:02:45;;;;;;;10.85;3.80;;;13.60;97.70;;;;;;5050320;28;20016;-75
2023/01/02 06:05:11;;;;;;;6.15;3.42;;;13.50;97.90;;;;;;5055805;28;20037;-75
2023/01/02 06:07:37;;;;;;;9.77;4.15;;;13.50;97.80;;;;;;5043542;28;20071;-75
2023/01/02 06:10:03;;;;;;;15.55;4.70;;;13.50;98.00;;;;;;5043242;28;20037;-74
2023/01/02 06:12:31;;;;;;;8.45;3.92;;;13.50;98.20;;;;;;5028335;28;20043;-75
2023/01/02 06:14:57;;;;;;;8.85;3.97;;;13.50;98.00;;;;;;5045095;28;20407;-77
2023/01/02 06:17:22;;;;;;;10.85;4.10;;;13.50;98.10;;;;;;5044813;28;20555;-75
2023/01/02 06:19:48;;;;;;;14.00;5.45;;;13.60;98.10;;;;;;5043393;28;20438;-76
2023/01/02 06:22:14;;;;;;;11.00;4.28;;;13.50;98.10;;;;;;5043313;28;20100;-75
2023/01/02 06:24:39;;;;;;;9.45;3.70;;;13.60;97.90;;;;;;5052161;28;20017;-76
2023/01/02 06:27:05;;;;;;;9.73;4.72;;;13.60;97.90;;;;;;5042014;28;20041;-75
2023/01/02 06:29:31;;;;;;;10.50;4.35;;;13.50;98.30;;;;;;5047752;28;20032;-76
2023/01/02 06:31:57;;;;;;;10.38;4.05;;;13.40;98.70;;;;;;5038398;28;20037;-75
2023/01/02 06:34:23;;;;;;;10.90;5.00;;;13.50;98.40;;;;;;5048156;28;20026;-75
2023/01/02 06:36:49;;;;;;;11.40;4.43;;;13.50;98.60;;;;;;5050332;28;20072;-76
2023/01/02 06:39:15;;;;;;;15.27;5.15;;;13.50;98.80;;;;;;5032314;28;20116;-75
2023/01/02 06:41:41;;;;;;;12.55;4.45;;;13.50;98.70;;;;;;5025908;28;20105;-75
2023/01/02 06:44:11;;;;;;;11.88;4.97;;;13.40;98.90;;;;;;5040988;28;20117;-74
2023/01/02 06:46:38;;;;;;;10.40;4.22;;;13.40;98.90;;;;;;5025154;28;20052;-74
2023/01/02 06:49:03;;;;;;;6.95;2.67;;;13.30;98.60;;;;;;5045547;28;20032;-73
2023/01/02 06:51:29;;;;;;;3.75;1.73;;;13.30;98.20;;;;;;5045992;28;20395;-75
2023/01/02 06:53:55;;;;;;;3.65;1.50;;;13.10;97.70;;;;;;5033875;28;20064;-74
2023/01/02 06:56:21;;;;;;;3.83;1.33;;;13.00;97.50;;;;;;5042093;28;20052;-74
2023/01/02 06:58:47;;;;;;;3.55;1.00;;;13.00;97.30;;;;;;5035506;28;20043;-76
2023/01/02 07:01:19;;;;;;;3.63;1.15;;;12.90;97.20;;;;;;5044409;28;20458;-74
2023/01/02 07:03:45;;;;;;;3.25;1.10;;;12.80;97.20;;;;;;5030067;28;20788;-74
2023/01/02 07:06:14;;;;;;;1.52;0.80;;;12.70;97.00;;;;;;5041949;28;20013;-74
2023/01/02 07:08:41;;;;;;;4.50;2.03;;;12.60;97.10;;;;;;5041362;28;20030;-74
2023/01/02 07:11:19;;;;;;;4.80;1.60;;;12.50;97.20;;;;;;5048717;28;20071;-74
2023/01/02 07:13:46;;;;;;;1.63;1.00;;;12.50;97.20;;;;;;5038563;28;20038;-75
2023/01/02 07:16:14;;;;;;;3.75;1.30;;;12.50;97.20;;;;;;5034785;28;20024;-75
2023/01/02 07:18:40;;;;;;;3.33;1.20;;;12.40;97.30;;;;;;5040366;28;20025;-75
2023/01/02 07:21:06;;;;;;;5.22;2.58;;;12.30;97.20;;;;;;5063312;28;20020;-74
2023/01/02 07:23:32;;;;;;;4.07;1.83;;;12.20;97.20;;;;;;5044048;28;20018;-74
2023/01/02 07:26:00;;;;;;;7.28;2.65;;;12.20;97.30;;;;;;5054269;28;20143;-74
2023/01/02 07:28:27;;;;;;;6.07;2.33;;;12.10;97.30;;;;;;5015099;28;20433;-75
2023/01/02 07:31:00;;;;;;;3.45;2.10;;;12.10;97.40;;;;;;5041248;28;20032;-74
2023/01/02 07:33:30;;;;;;;5.88;2.70;;;12.00;97.50;;;;;;5021547;28;20033;-74
2023/01/02 07:36:00;;;;;;;3.22;1.65;;;12.00;97.60;;;;;;5041203;28;20033;-75
2023/01/02 07:38:29;;;;;;;5.97;2.22;;;12.00;97.60;;;;;;5041120;28;20017;-75
2023/01/02 07:40:55;;;;;;;4.60;2.25;;;11.90;97.50;;;;;;5043224;28;20025;-75
2023/01/02 07:43:20;;;;;;;6.07;3.10;;;11.80;97.60;;;;;;5028423;28;20030;-75
2023/01/02 07:46:00;;;;;;;5.95;3.75;;;11.80;97.80;;;;;;5036484;28;20756;-76
2023/01/02 07:48:27;;;;;;;7.50;4.60;;;11.70;97.80;;;;;;5040041;28;20032;-76
2023/01/02 07:50:53;;;;;;;6.90;4.47;;;11.70;97.80;;;;;;5039512;28;20529;-74
2023/01/02 07:53:18;;;;;;;4.93;2.78;;;11.80;97.80;;;;;;5042681;28;20030;-75
2023/01/02 07:55:52;;;;;;;6.32;3.85;;;11.80;97.90;;;;;;5037287;28;20021;-75
2023/01/02 07:58:18;;;;;;;8.00;5.65;;;11.70;97.90;;;;;;5022139;28;20407;-75
2023/01/02 08:00:43;;;;;;;6.88;4.63;;;11.70;98.00;;;;;;5040421;28;20024;-75
2023/01/02 08:03:09;;;;;;;9.77;7.32;;;11.70;98.10;;;;;;5039307;28;20033;-75
2023/01/02 08:05:44;;;;;;;8.07;6.22;;;11.70;98.10;;;;;;5042650;28;20079;-77
2023/01/02 08:08:10;;;;;;;7.65;5.10;;;11.60;98.20;;;;;;5037105;28;20031;-75
2023/01/02 08:10:36;;;;;;;9.05;6.45;;;11.70;98.20;;;;;;5029359;28;20029;-76
2023/01/02 08:13:03;;;;;;;8.05;5.55;;;11.60;98.20;;;;;;5043031;28;20037;-75
2023/01/02 08:15:28;;;;;;;9.45;6.97;;;11.60;98.20;;;;;;5038295;28;20036;-76
2023/01/02 08:17:56;;;;;;;10.18;7.53;;;11.70;98.30;;;;;;5042023;28;20029;-74
2023/01/02 08:20:22;;;;;;;11.32;8.23;;;11.60;98.30;;;;;;5036259;28;20021;-76
2023/01/02 08:22:47;;;;;;;9.15;6.50;;;11.50;98.30;;;;;;5039806;28;20459;-76
2023/01/02 08:25:13;;;;;;;12.27;8.63;;;11.50;98.50;;;;;;5036635;28;20076;-73
2023/01/02 08:27:39;;;;;;;10.90;7.57;;;11.50;98.60;;;;;;5041169;28;20041;-76
2023/01/02 08:30:05;;;;;;;10.93;7.10;;;11.50;98.50;;;;;;5027826;28;20072;-75
2023/01/02 08:32:35;;;;;;;10.10;7.18;;;11.50;98.50;;;;;;5050748;28;20482;-74
2023/01/02 08:35:02;;;;;;;10.00;6.47;;;11.50;98.50;;;;;;5038224;28;20144;-74
2023/01/02 08:37:27;;;;;;;10.13;6.95;;;11.60;98.50;;;;;;5044672;28;20020;-74
2023/01/02 08:39:53;;;;;;;11.13;7.45;;;11.60;98.40;;;;;;5038621;28;20041;-76
2023/01/02 08:42:19;;;;;;;12.93;9.63;;;11.60;98.30;;;;;;5034968;28;20068;-77
2023/01/02 08:44:44;;;;;;;13.18;8.95;;;11.60;98.40;;;;;;5017875;28;20029;-76
2023/01/02 08:47:10;;;;;;;10.80;7.50;;;11.60;98.40;;;;;;5032582;28;20029;-77
2023/01/02 08:49:35;;;;;;;10.98;7.65;;;11.60;98.50;;;;;;5035676;28;20029;-77
2023/01/02 08:52:01;;;;;;;14.63;9.10;;;11.60;98.50;;;;;;5030559;28;20025;-76
2023/01/02 08:54:27;;;;;;;13.73;8.50;;;11.60;98.40;;;;;;5029968;28;20811;-77
2023/01/02 08:56:52;;;;;;;10.35;7.50;;;11.60;98.30;;;;;;5035131;28;20029;-76
2023/01/02 08:59:18;;;;;;;8.85;6.43;;;11.60;98.20;;;;;;5023412;28;20352;-78
2023/01/02 09:01:44;;;;;;;10.00;6.60;;;11.70;98.20;;;;;;5032437;28;20037;-74
2023/01/02 09:04:10;;;;;;;10.00;7.03;;;11.60;98.10;;;;;;5033611;28;20033;-73
2023/01/02 09:06:36;;;;;;;9.77;5.68;;;11.60;98.00;;;;;;5031255;28;20063;-76
2023/01/02 09:09:03;;;;;;;9.15;6.00;;;11.60;97.80;;;;;;5017061;28;20513;-76
2023/01/02 09:11:35;;;;;;;7.82;5.15;;;11.60;97.90;;;;;;5031795;28;20492;-78
2023/01/02 09:14:02;;;;;;;8.32;5.63;;;11.40;97.80;;;;;;5033040;28;20037;-77
2023/01/02 09:16:28;;;;;;;8.68;5.50;;;11.40;97.80;;;;;;5032104;28;20043;-73
2023/01/02 09:18:56;;;;;;;9.63;5.13;;;11.50;97.80;;;;;;5027748;28;20029;-75
2023/01/02 09:21:24;;;;;;;6.25;3.80;;;11.40;97.70;;;;;;5030840;28;20014;-75
2023/01/02 09:23:50;;;;;;;7.63;3.50;;;11.30;97.70;;;;;;5019810;28;20037;-76
2023/01/02 09:26:16;;;;;;;9.48;4.30;;;11.30;97.70;;;;;;5034487;28;20127;-75
2023/01/02 09:28:42;;;;;;;8.75;5.05;;;11.30;97.60;;;;;;5037729;28;20582;-74
2023/01/02 09:31:11;;;;;;;10.52;5.22;;;11.20;97.60;;;;;;5028283;28;20030;-74
2023/01/02 09:33:37;;;;;;;9.70;6.15;;;11.20;97.70;;;;;;5031181;28;20033;-75
2023/01/02 09:36:05;;;;;;;10.13;6.00;;;11.10;97.70;;;;;;5034082;28;20549;-74
2023/01/02 09:38:31;;;;;;;9.65;5.72;;;11.20;97.70;;;;;;5027909;28;20503;-73
2023/01/02 09:41:01;;;;;;;9.98;5.18;;;11.10;97.60;;;;;;5035821;28;20048;-75
2023/01/02 09:43:34;;;;;;;11.43;5.63;;;11.10;97.70;;;;;;5027522;28;20045;-74
2023/01/02 09:46:03;;;;;;;11.13;6.45;;;11.10;97.60;;;;;;5029849;28;20056;-74
2023/01/02 09:48:34;;;;;;;7.45;5.07;;;11.10;97.60;;;;;;5034550;28;20017;-75
2023/01/02 09:51:02;;;;;;;9.07;6.45;;;11.10;97.70;;;;;;5021865;28;20052;-77
2023/01/02 09:53:28;;;;;;;11.40;5.55;;;11.10;97.60;;;;;;5030248;28;20045;-76
2023/01/02 09:56:31;;;;;;;9.35;6.90;;;11.10;97.70;;;;;;5014738;28;20484;-76
2023/01/02 09:59:16;;;;;;;11.20;6.68;;;11.10;97.50;;;;;;5014662;28;20029;-78
2023/01/02 10:01:58;;;;;;;10.93;7.50;;;11.10;97.60;;;;;;5029219;28;20108;-75
2023/01/02 10:04:41;;;;;;;10.05;6.65;;;11.20;97.70;;;;;;5031875;28;20025;-74
2023/01/02 10:07:10;;;;;;;9.98;6.30;;;11.10;97.80;;;;;;5031214;28;20029;-74
2023/01/02 10:09:47;;;;;;;10.05;5.22;;;11.20;97.40;;;;;;5031282;28;20021;-74
2023/01/02 10:12:34;;;;;;;9.15;5.57;;;11.20;97.50;;;;;;5032929;28;20029;-74
2023/01/02 10:15:03;;;;;;;9.85;5.10;;;11.10;97.40;;;;;;5033588;28;20033;-74
2023/01/02 10:17:36;;;;;;;8.63;3.50;;;11.10;97.40;;;;;;5028071;28;20112;-76
2023/01/02 10:20:14;;;;;;;6.30;3.75;;;11.10;97.20;;;;;;5028499;28;20087;-75
2023/01/02 10:22:47;;;;;;;7.75;3.55;;;11.10;97.30;;;;;;5033052;28;20031;-75
2023/01/02 10:25:21;;;;;;;9.57;3.35;;;11.20;97.20;;;;;;5035185;28;20065;-77
2023/01/02 10:27:53;;;;;;;7.15;3.47;;;11.20;97.10;;;;;;5031697;28;20686;-74
2023/01/02 10:30:22;;;;;;;7.53;3.85;;;11.30;97.00;;;;;;5029186;28;20033;-76
2023/01/02 10:33:17;;;;;;;4.72;2.17;;;11.30;96.80;;;;;;5022739;28;20055;-76
2023/01/02 10:35:54;;;;;;;6.90;2.42;;;11.30;96.90;;;;;;5018749;28;20090;-77
2023/01/02 10:38:20;;;;;;;9.38;3.35;;;11.40;96.70;;;;;;5019379;28;20440;-75
2023/01/02 10:40:48;;;;;;;7.22;3.38;;;11.30;96.30;;;;;;5027572;28;20021;-76
2023/01/02 10:43:15;;;;;;;4.63;2.42;;;11.30;96.30;;;;;;5018172;28;20043;-79
2023/01/02 10:45:41;;;;;;;8.23;2.45;;;11.40;96.20;;;;;;5031664;28;20041;-78
2023/01/02 10:48:12;;;;;;;10.50;2.60;;;11.40;96.20;;;;;;5035851;28;20029;-76
2023/01/02 10:50:47;;;;;;;7.10;2.65;;;11.30;95.90;;;;;;5037784;28;20035;-76
2023/01/02 10:53:30;;;;;;;6.30;2.25;;;11.30;95.90;;;;;;5035914;28;20395;-78
2023/01/02 10:56:01;;;;;;;7.13;2.28;;;11.40;96.00;;;;;;5029481;28;20025;-76
2023/01/02 10:58:29;;;;;;;7.13;2.05;;;11.40;96.00;;;;;;5016170;28;20425;-77
2023/01/02 11:01:18;;;;;;;7.40;2.75;;;11.40;95.90;;;;;;5029660;28;20491;-74
2023/01/02 11:04:11;;;;;;;6.63;2.72;;;11.30;95.90;;;;;;5031179;28;20435;-74
2023/01/02 11:06:50;;;;;;;7.07;3.22;;;11.30;95.90;;;;;;5025608;28;20045;-75
2023/01/02 11:09:28;;;;;;;8.90;2.87;;;11.30;95.90;;;;;;5013678;28;20796;-77
2023/01/02 11:12:13;;;;;;;7.47;2.90;;;11.40;96.00;;;;;;5020949;28;20029;-74
2023/01/02 11:14:41;;;;;;;11.43;3.58;;;11.40;96.00;;;;;;5029936;28;20674;-77
2023/01/02 11:17:18;;;;;;;6.85;3.10;;;11.40;95.90;;;;;;5029522;28;20467;-76
2023/01/02 11:19:49;;;;;;;8.63;3.15;;;11.40;95.80;;;;;;5033685;28;20041;-74
2023/01/02 11:22:18;;;;;;;5.28;2.03;;;11.40;95.80;;;;;;5020059;28;20029;-75
2023/01/02 11:25:02;;;;;;;8.30;3.08;;;11.40;95.90;;;;;;5018958;28;20190;-75
2023/01/02 11:27:36;;;;;;;6.60;2.53;;;11.50;95.90;;;;;;5030382;28;20555;-75
2023/01/02 11:30:05;;;;;;;7.38;2.95;;;11.50;95.90;;;;;;5030741;28;20080;-74
2023/01/02 11:32:39;;;;;;;5.13;2.22;;;11.60;96.00;;;;;;5031931;28;20048;-76
2023/01/02 11:35:44;;;;;;;8.57;2.83;;;11.60;95.90;;;;;;5031378;28;20024;-75
2023/01/02 11:38:18;;;;;;;7.05;2.40;;;11.70;95.90;;;;;;5032900;28;20112;-76
2023/01/02 11:41:04;;;;;;;7.60;2.60;;;11.70;95.90;;;;;;5031121;28;20013;-76
2023/01/02 11:43:48;;;;;;;9.10;3.00;;;11.60;96.00;;;;;;5032349;28;20103;-76
2023/01/02 11:46:32;;;;;;;9.35;2.50;;;11.60;95.60;;;;;;5027576;28;20034;-75
2023/01/02 11:49:14;;;;;;;7.07;2.55;;;11.60;95.70;;;;;;5031383;28;20039;-76
2023/01/02 11:51:40;;;;;;;8.70;2.67;;;11.50;95.40;;;;;;5034052;28;20519;-76
2023/01/02 11:54:15;;;;;;;6.40;2.15;;;11.50;95.40;;;;;;5033521;28;20504;-78
2023/01/02 11:56:43;;;;;;;8.45;2.70;;;11.40;95.40;;;;;;5014903;28;20049;-77
2023/01/02 11:59:32;;;;;;;8.07;3.15;;;11.40;95.40;;;;;;4993381;28;20471;-76
2023/01/02 12:02:14;;;;;;;8.60;2.20;;;11.40;95.40;;;;;;5030789;28;20468;-77
2023/01/02 12:04:40;;;;;;;15.25;4.55;;;11.40;95.30;;;;;;5035933;28;22796;-77
2023/01/02 12:07:25;;;;;;;15.38;5.20;;;11.40;95.10;;;;;;5035406;28;20040;-77
2023/01/02 12:10:09;;;;;;;9.85;3.20;;;11.40;95.10;;;;;;5031588;28;20021;-75
2023/01/02 12:12:35;;;;;;;4.53;2.08;;;11.20;95.10;;;;;;5029501;28;20031;-78
2023/01/02 12:15:07;;;;;;;5.95;2.00;;;11.30;95.20;;;;;;5035384;28;20033;-76
2023/01/02 12:18:00;;;;;;;9.52;2.70;;;11.30;95.10;;;;;;5030030;28;20665;-74
2023/01/02 12:20:51;;;;;;;7.47;2.95;;;11.40;95.30;;;;;;5034555;28;20380;-77
2023/01/02 12:23:31;;;;;;;8.93;3.47;;;11.40;95.30;;;;;;5032171;28;20026;-77
2023/01/02 12:26:09;;;;;;;;;;;11.30;95.30;;;;;;5037402;28;20050;-77
2023/01/02 12:28:56;;;;;;;11.55;4.63;;;11.40;95.50;;;;;;5032123;28;19916;-76
2023/01/02 12:31:48;;;;;;;12.95;5.32;;;11.30;95.50;;;;;;5034114;28;20043;-75
2023/01/02 12:34:50;;;;;;;10.70;5.15;;;11.40;95.50;;;;;;5034295;28;20029;-76
2023/01/02 12:37:46;;;;;;;14.05;5.78;;;11.40;95.50;;;;;;5034485;28;20033;-76
2023/01/02 12:40:21;;;;;;;8.48;4.82;;;11.40;95.70;;;;;;5027633;28;20095;-76
2023/01/02 12:43:08;;;;;;;8.63;4.28;;;11.40;95.70;;;;;;5030474;28;20033;-76
2023/01/02 12:45:41;;;;;;;10.45;5.53;;;11.40;95.80;;;;;;5031092;28;20022;-76
2023/01/02 12:48:30;;;;;;;10.98;5.15;;;11.40;95.60;;;;;;5032242;28;20029;-78
2023/01/02 12:51:18;;;;;;;12.88;5.22;;;11.40;95.50;;;;;;5031447;28;20035;-76
2023/01/02 12:53:59;;;;;;;11.52;6.07;;;11.50;95.50;;;;;;5010799;28;20135;-76
2023/01/02 12:56:24;;;;;;;11.93;4.55;;;11.40;95.40;;;;;;5033230;28;20049;-76
2023/01/02 12:59:12;;;;;;;12.65;5.53;;;11.50;95.50;;;;;;5039129;28;20072;-76
2023/01/02 13:02:01;;;;;;;12.95;5.47;;;11.40;95.40;;;;;;5039720;28;20104;-75
2023/01/02 13:04:41;;;;;;;14.90;5.50;;;11.50;95.40;;;;;;5036711;28;20053;-77